Earlysville, VA

5:44 AM EST on February 09, 2016 (GMT -0500)
Hollymead | | Change Station
CLOSE
Current Station
Personal Weather Station
Location: Charlottesville, VA
Elevation: 482 ft
Nearby Weather Stations

Elev 482 ft 38.12 °N, 78.45 °W | Updated 1 minute ago

Fog
Fog
35.3 °F
Feels Like 35 °F
N
0.0
Wind Variable Wind from North
Gusts 1.0 mph

Today
High -- | Low -- °F
--% Chance of Precip.
Yesterday
High -- | Low -- °F
Precip. -- in
Pressure 29.55 in
Visibility 2.0 miles
Clouds Overcast 200 ft
Windchill 35 °F
Dew Point 34 °F
Humidity 97%
Rainfall 0.00 in
Snow Depth Not available.
7:11 AM 5:45 PM
New Moon, 1% visible
SPECI KCHO 091037Z 00000KT 2SM BR OVC002 02/01 A2955 RMK AO2 T00170006
Pressure 29.55 in
Visibility 2.0 miles
Clouds Overcast 200 ft
Windchill 35 °F
Dew Point 34 °F
Humidity 97%
Rainfall 0.00 in
Snow Depth Not available.
7:11 AM 5:45 PM
New Moon, 1% visible
SPECI KCHO 091037Z 00000KT 2SM BR OVC002 02/01 A2955 RMK AO2 T00170006

10-Day Weather Forecast

Almanac

Astronomy

Feb. 09, 2016 Rise Set
Actual Time
Civil Twilight
Nautical Twilight
Astronomical Twilight
Moon
Length of Visible Light
Length of Day
Tomorrow will be .
, % of the Moon is Illuminated

Today's Extremes

State Highs State Lows

Community

WunderPhotos

Upload Photos

1,891,565 photos uploaded!

WunderBlog® & News

Nearby

Air Quality

  Air Quality AQ Index Pollutant
Not available.

Snow Depth

Station Depth Elevation

Earthquake Activity

City Distance Mag. Time & Date
Minimum magnitude displayed is 2.5.

Coastal Water Temperatures

Place Temperature

Stations

Nearby Weather Stations

Station Location Temp. Windchill Dew Point Humidity Wind Precip. Elev Updated Type
                   

Watches & Warnings

There are currently no watches in effect.